Terminal Aerodrome Forecast
Issued by NWS

Home | Current Version | Previous Version | Text Only | Print | Product List | Glossary On
Versions: 1 2 3 4 5 6 7 8 9 10 11 12 13 14 15 16 17 18 19 20 21 22 23 24 25 26 27 28
000
FTUS43 KGLD 222320
TAFMCK
TAF
KMCK 222320Z 2300/2324 17019G22KT P6SM VCSH SCT060 BKN100
      TEMPO 2300/2301 -SHRA BKN040
     FM230100 16008KT P6SM -SHRA VCTS BKN040CB
     FM230500 14008KT P6SM VCSH BKN040
     FM230900 VRB04KT P6SM SCT015 BKN035
     FM231600 20010KT P6SM SCT050 BKN200=

USA.gov is the U.S. government's official web portal to all federal, state and local government web resources and services.